Time;durP1;ratioP1;P1;durP2;ratioP2;P2;SDS_P1;SDS_P2;PMS_P1;PMS_P2;Temp;Humidity;BMP_temperature;BMP_pressure;BME280_temperature;BME280_humidity;BME280_pressure;Samples;Min_cycle;Max_cycle;Signal;HPM_P1;HPM_P2
2022/06/15 00:00:03;;;;;;;367.20;241.17;;;;;;;22.03;60.75;99776.41;409756;24;1062;-83
2022/06/15 00:00:14;;;;;;;370.63;244.30;;;;;;;22.06;60.71;99781.47;412025;24;970;-83
2022/06/15 00:00:24;;;;;;;370.23;245.83;;;;;;;22.05;60.74;99779.78;411709;24;861;-83
2022/06/15 00:00:35;;;;;;;367.77;244.35;;;;;;;22.04;60.47;99772.75;408784;24;1111;-83
2022/06/15 00:00:46;;;;;;;367.10;244.93;;;;;;;22.05;61.17;99785.09;413635;23;1300;-83
2022/06/15 00:01:02;;;;;;;373.00;245.93;;;;;;;22.01;60.94;99778.34;411560;24;1592;-82
2022/06/15 00:01:20;;;;;;;373.55;245.43;;;;;;;22.05;60.77;99778.94;411762;24;937;-82
2022/06/15 00:01:30;;;;;;;368.45;245.77;;;;;;;22.03;60.61;99776.41;413676;23;1400;-82
2022/06/15 00:01:41;;;;;;;367.90;245.23;;;;;;;22.03;61.25;99776.41;413588;23;1329;-83
2022/06/15 00:01:51;;;;;;;366.63;241.88;;;;;;;22.03;60.70;99783.56;413643;23;1348;-83
2022/06/15 00:02:02;;;;;;;367.63;241.43;;;;;;;22.00;61.20;99781.13;411842;24;722;-83
2022/06/15 00:02:12;;;;;;;365.50;239.98;;;;;;;22.00;60.95;99781.13;413734;23;1300;-83
2022/06/15 00:02:23;;;;;;;364.90;239.30;;;;;;;21.99;60.71;99780.25;412037;24;1248;-82
2022/06/15 00:02:33;;;;;;;363.48;237.40;;;;;;;22.01;60.65;99773.03;409789;24;723;-82
2022/06/15 00:02:43;;;;;;;364.83;240.07;;;;;;;21.99;60.86;99776.75;411984;24;1418;-82
2022/06/15 00:02:54;;;;;;;367.80;242.43;;;;;;;21.94;60.60;99771.81;411987;24;1235;-82
2022/06/15 00:03:04;;;;;;;369.17;242.50;;;;;;;21.97;60.84;99776.88;411687;24;1269;-83
2022/06/15 00:03:15;;;;;;;367.70;239.50;;;;;;;21.93;60.87;99770.13;410142;24;1085;-83
2022/06/15 00:03:30;;;;;;;364.65;239.10;;;;;;;21.96;60.90;99777.84;412034;24;1233;-83
2022/06/15 00:03:40;;;;;;;361.40;237.85;;;;;;;21.96;61.26;99774.34;413848;23;1327;-83
2022/06/15 00:03:51;;;;;;;363.42;240.43;;;;;;;21.92;61.17;99771.09;413817;23;1472;-83
2022/06/15 00:04:03;;;;;;;366.13;243.17;;;;;;;21.91;60.94;99775.59;410032;24;1323;-83
2022/06/15 00:04:13;;;;;;;368.50;245.30;;;;;;;21.91;61.41;99777.41;412005;24;821;-83
2022/06/15 00:04:24;;;;;;;370.67;245.52;;;;;;;21.94;61.12;99777.16;413733;23;1183;-83
2022/06/15 00:04:34;;;;;;;369.40;242.27;;;;;;;21.91;61.36;99772.06;411479;23;1289;-83
2022/06/15 00:04:45;;;;;;;373.83;245.32;;;;;;;21.94;61.34;99779.81;411435;23;1556;-83
2022/06/15 00:04:55;;;;;;;374.00;245.73;;;;;;;21.93;61.01;99775.47;411764;24;1274;-83
2022/06/15 00:05:06;;;;;;;371.40;241.30;;;;;;;21.92;61.13;99776.44;411963;24;917;-83
2022/06/15 00:05:17;;;;;;;368.97;240.23;;;;;;;21.93;61.10;99775.47;410225;24;1201;-83
2022/06/15 00:05:27;;;;;;;367.05;237.25;;;;;;;21.96;61.06;99782.34;411782;24;1333;-83
2022/06/15 00:05:38;;;;;;;366.63;240.90;;;;;;;21.95;61.09;99776.16;412016;24;1182;-83
2022/06/15 00:05:48;;;;;;;363.55;238.77;;;;;;;21.97;60.91;99787.53;411628;24;1391;-83
2022/06/15 00:06:04;;;;;;;361.02;238.95;;;;;;;21.97;60.79;99776.88;410131;24;1340;-83
2022/06/15 00:06:21;;;;;;;360.15;236.30;;;;;;;21.97;61.15;99776.03;409933;24;1469;-83
2022/06/15 00:06:36;;;;;;;361.38;237.90;;;;;;;21.99;61.08;99776.75;413855;23;1258;-83
2022/06/15 00:06:47;;;;;;;361.50;239.93;;;;;;;21.98;60.95;99781.25;413733;23;1369;-83
2022/06/15 00:06:57;;;;;;;359.97;235.00;;;;;;;21.99;61.27;99782.94;411847;24;1390;-83
2022/06/15 00:07:08;;;;;;;361.83;236.57;;;;;;;21.97;61.22;99779.56;411686;24;1219;-83
2022/06/15 00:07:18;;;;;;;363.90;237.40;;;;;;;21.95;61.05;99778.84;413819;23;909;-83
2022/06/15 00:07:28;;;;;;;368.55;241.52;;;;;;;21.96;61.40;99780.53;413747;23;1262;-83
2022/06/15 00:07:39;;;;;;;369.50;243.37;;;;;;;21.92;61.35;99774.59;411939;24;1269;-83
2022/06/15 00:07:49;;;;;;;365.83;241.52;;;;;;;21.98;61.19;99783.06;411772;24;1174;-83
2022/06/15 00:08:00;;;;;;;364.37;241.80;;;;;;;21.96;61.06;99780.53;413660;23;1947;-83
2022/06/15 00:08:11;;;;;;;366.53;244.03;;;;;;;21.94;60.95;99777.16;412145;24;766;-82
2022/06/15 00:08:21;;;;;;;369.38;249.15;;;;;;;21.92;61.39;99779.94;409949;24;1036;-82
2022/06/15 00:08:32;;;;;;;370.23;247.75;;;;;;;21.94;60.97;99785.13;409728;24;1207;-82
2022/06/15 00:08:43;;;;;;;367.73;242.87;;;;;;;21.95;61.39;99784.16;411976;24;735;-82
2022/06/15 00:08:56;;;;;;;366.58;239.88;;;;;;;21.94;61.01;99781.63;412045;24;833;-82
2022/06/15 00:09:07;;;;;;;363.45;237.20;;;;;;;21.95;61.23;99781.50;412006;23;1374;-82
2022/06/15 00:09:17;;;;;;;363.95;239.70;;;;;;;21.93;61.03;99775.47;410126;24;1451;-82
2022/06/15 00:09:27;;;;;;;367.97;241.90;;;;;;;21.95;61.18;99783.31;415650;23;1299;-82
2022/06/15 00:09:38;;;;;;;371.07;247.67;;;;;;;21.96;61.23;99782.34;412580;23;1203;-82
2022/06/15 00:09:48;;;;;;;370.48;248.63;;;;;;;21.95;61.14;99786.84;413085;23;825;-82
2022/06/15 00:10:00;;;;;;;370.07;248.27;;;;;;;21.93;61.30;99780.78;412149;24;786;-82
2022/06/15 00:10:11;;;;;;;370.88;243.10;;;;;;;21.89;61.38;99784.69;413926;23;1402;-82
2022/06/15 00:10:21;;;;;;;370.58;241.32;;;;;;;21.87;61.19;99775.97;412132;24;1042;-82
2022/06/15 00:10:32;;;;;;;367.50;238.00;;;;;;;21.89;61.30;99784.69;414238;23;1324;-82
2022/06/15 00:10:43;;;;;;;370.65;241.07;;;;;;;21.93;61.04;99786.13;413876;23;1537;-82
2022/06/15 00:10:54;;;;;;;370.33;239.57;;;;;;;21.94;61.12;99787.81;411991;23;1205;-82
2022/06/15 00:11:25;;;;;;;368.92;238.75;;;;;;;21.93;60.78;99780.78;410118;24;908;-82
2022/06/15 00:11:38;;;;;;;358.63;228.95;;;;;;;21.90;60.99;99786.38;411989;24;1426;-82
2022/06/15 00:11:48;;;;;;;360.70;233.95;;;;;;;21.90;61.07;99781.88;413616;23;1276;-82
2022/06/15 00:11:59;;;;;;;365.17;239.77;;;;;;;21.95;60.79;99780.66;415659;23;877;-82
2022/06/15 00:12:09;;;;;;;368.50;242.77;;;;;;;21.91;61.11;99783.59;415841;23;781;-82
2022/06/15 00:12:19;;;;;;;367.07;239.87;;;;;;;21.92;61.33;99779.94;411866;23;1322;-82
2022/06/15 00:12:30;;;;;;;366.20;238.80;;;;;;;21.90;61.46;99773.06;413616;23;1227;-82
2022/06/15 00:12:40;;;;;;;366.97;236.50;;;;;;;21.91;61.50;99782.75;410175;24;1161;-82
2022/06/15 00:12:51;;;;;;;368.10;238.32;;;;;;;21.86;61.45;99782.28;410155;24;1217;-82
2022/06/15 00:13:01;;;;;;;368.87;241.67;;;;;;;21.80;61.35;99777.47;411923;24;1167;-82
2022/06/15 00:13:11;;;;;;;366.17;242.45;;;;;;;21.82;61.16;99789.69;411828;24;1323;-82
2022/06/15 00:13:22;;;;;;;365.50;242.53;;;;;;;21.78;61.40;99782.09;413984;23;1333;-82
2022/06/15 00:13:32;;;;;;;366.20;240.40;;;;;;;21.80;61.46;99788.13;413788;23;1299;-82
2022/06/15 00:13:43;;;;;;;368.30;242.63;;;;;;;21.83;61.46;99779.88;413895;23;1183;-82
2022/06/15 00:13:54;;;;;;;368.77;240.32;;;;;;;21.79;61.21;99775.78;415906;23;1388;-82
2022/06/15 00:14:10;;;;;;;369.55;242.27;;;;;;;21.81;61.63;99784.50;415920;23;1309;-82
2022/06/15 00:14:22;;;;;;;368.38;239.90;;;;;;;21.80;61.26;99778.31;415641;23;1318;-82
2022/06/15 00:14:33;;;;;;;368.58;240.20;;;;;;;21.78;61.03;99772.28;411642;24;1389;-81
2022/06/15 00:14:44;;;;;;;369.10;240.43;;;;;;;21.83;61.42;99777.22;413618;23;1248;-81
2022/06/15 00:14:55;;;;;;;369.20;241.32;;;;;;;21.82;61.52;99776.38;413850;23;863;-82
2022/06/15 00:15:07;;;;;;;368.88;242.23;;;;;;;21.82;61.75;99779.03;412044;24;998;-82
2022/06/15 00:15:17;;;;;;;365.85;244.52;;;;;;;21.81;61.33;99776.50;411971;24;837;-82
2022/06/15 00:15:28;;;;;;;364.80;241.73;;;;;;;21.83;61.51;99780.72;410010;24;1154;-82
2022/06/15 00:15:38;;;;;;;364.75;239.38;;;;;;;21.86;61.27;99776.94;410049;24;1533;-82
2022/06/15 00:15:49;;;;;;;368.03;242.37;;;;;;;21.86;61.18;99774.28;413677;23;1239;-82
2022/06/15 00:16:00;;;;;;;367.98;240.77;;;;;;;21.84;61.42;99779.75;411960;24;1425;-82
2022/06/15 00:16:10;;;;;;;365.88;239.30;;;;;;;21.86;61.34;99774.28;411697;23;1351;-82
2022/06/15 00:16:21;;;;;;;364.33;238.20;;;;;;;21.85;61.16;99775.25;411925;23;1316;-82
2022/06/15 00:16:31;;;;;;;363.83;242.57;;;;;;;21.83;61.14;99774.53;411812;24;875;-82
2022/06/15 00:16:42;;;;;;;363.13;243.10;;;;;;;21.80;61.41;99772.13;412202;24;845;-82
2022/06/15 00:16:52;;;;;;;364.60;240.35;;;;;;;21.85;61.72;99780.59;413639;23;1301;-82
2022/06/15 00:17:03;;;;;;;367.13;237.85;;;;;;;21.83;61.07;99786.03;413721;23;1324;-82
2022/06/15 00:17:13;;;;;;;367.67;238.20;;;;;;;21.77;61.28;99769.72;411831;24;1276;-82
2022/06/15 00:17:24;;;;;;;366.40;240.05;;;;;;;21.80;61.19;99780.13;415852;23;1239;-82
2022/06/15 00:17:34;;;;;;;369.33;240.50;;;;;;;21.79;61.62;99773.13;413755;23;1170;-82
2022/06/15 00:17:45;;;;;;;369.03;239.70;;;;;;;21.80;61.40;99774.81;411972;24;1182;-82
2022/06/15 00:17:55;;;;;;;369.77;242.25;;;;;;;21.74;61.41;99768.16;411789;24;1179;-81
2022/06/15 00:18:05;;;;;;;367.23;242.37;;;;;;;21.74;61.73;99776.16;412007;23;1271;-82
2022/06/15 00:18:16;;;;;;;366.58;240.18;;;;;;;21.75;61.54;99774.34;411934;23;1288;-82
2022/06/15 00:18:28;;;;;;;366.30;237.17;;;;;;;21.73;61.55;99773.63;411841;24;1214;-82
2022/06/15 00:18:38;;;;;;;364.67;234.77;;;;;;;21.73;61.53;99778.97;410351;24;809;-82
2022/06/15 00:18:49;;;;;;;367.25;238.95;;;;;;;21.71;61.57;99767.59;411175;24;1019;-82
2022/06/15 00:18:59;;;;;;;368.70;241.43;;;;;;;21.74;61.62;99780.66;413333;23;1208;-82
2022/06/15 00:19:10;;;;;;;373.17;243.75;;;;;;;21.71;61.56;99778.25;411963;24;894;-82
2022/06/15 00:19:20;;;;;;;372.60;242.37;;;;;;;21.76;61.58;99787.53;413646;23;1178;-82
2022/06/15 00:19:31;;;;;;;371.20;240.60;;;;;;;21.72;61.47;99774.59;413734;23;1209;-82
2022/06/15 00:19:41;;;;;;;370.53;240.37;;;;;;;21.69;61.81;99764.19;411366;23;1186;-82
2022/06/15 00:19:51;;;;;;;369.25;237.30;;;;;;;21.71;62.05;99770.25;413413;23;1136;-82
2022/06/15 00:20:03;;;;;;;369.53;238.43;;;;;;;21.69;61.59;99772.19;412034;24;1210;-82
2022/06/15 00:20:13;;;;;;;371.42;240.95;;;;;;;21.73;61.80;99776.28;411841;24;1561;-82
2022/06/15 00:20:23;;;;;;;371.42;241.27;;;;;;;21.71;61.75;99764.91;411904;24;1281;-82
2022/06/15 00:20:34;;;;;;;371.53;239.83;;;;;;;21.73;61.40;99768.31;413867;23;1187;-82
2022/06/15 00:20:44;;;;;;;369.00;238.55;;;;;;;21.75;61.80;99767.19;415885;23;926;-82
2022/06/15 00:20:56;;;;;;;372.23;242.67;;;;;;;21.75;61.49;99766.34;413470;23;1517;-82
2022/06/15 00:21:07;;;;;;;372.58;244.80;;;;;;;21.74;61.46;99770.00;413827;23;1518;-82
2022/06/15 00:21:18;;;;;;;374.40;244.02;;;;;;;21.76;61.73;99771.56;412083;24;1218;-82
2022/06/15 00:21:28;;;;;;;369.52;240.40;;;;;;;21.76;61.32;99778.69;412047;24;865;-82
2022/06/15 00:21:39;;;;;;;369.43;240.57;;;;;;;21.74;61.15;99776.16;411828;24;1243;-82
2022/06/15 00:21:49;;;;;;;366.02;237.57;;;;;;;21.74;61.43;99780.66;413885;23;1113;-82
2022/06/15 00:22:00;;;;;;;366.10;238.93;;;;;;;21.73;61.17;99770.97;411983;24;786;-82
2022/06/15 00:22:11;;;;;;;365.73;238.30;;;;;;;21.73;61.55;99777.13;409838;24;1136;-82
2022/06/15 00:22:22;;;;;;;368.17;241.73;;;;;;;21.72;61.47;99767.47;411589;24;1263;-82
2022/06/15 00:22:32;;;;;;;368.83;240.00;;;;;;;21.73;61.71;99765.63;411723;24;1387;-82
2022/06/15 00:22:42;;;;;;;369.13;238.30;;;;;;;21.73;61.33;99774.47;410185;24;1034;-82
2022/06/15 00:22:53;;;;;;;367.55;237.10;;;;;;;21.74;61.53;99768.16;415565;23;1870;-82
2022/06/15 00:23:04;;;;;;;370.03;236.97;;;;;;;21.74;61.55;99770.84;413836;23;1166;-82
2022/06/15 00:23:14;;;;;;;370.52;237.70;;;;;;;21.75;61.51;99766.34;409774;24;1480;-82
2022/06/15 00:23:25;;;;;;;368.97;236.43;;;;;;;21.78;61.12;99768.75;414019;23;1256;-82
2022/06/15 00:23:36;;;;;;;366.52;237.05;;;;;;;21.76;61.13;99768.03;413431;23;1206;-82
2022/06/15 00:23:46;;;;;;;367.30;237.82;;;;;;;21.78;61.29;99771.41;414139;23;745;-82
2022/06/15 00:23:57;;;;;;;371.03;241.27;;;;;;;21.71;61.40;99768.44;409659;24;1191;-81
2022/06/15 00:24:08;;;;;;;367.85;242.13;;;;;;;21.73;61.36;99773.63;413449;23;1277;-81
2022/06/15 00:24:19;;;;;;;365.53;237.97;;;;;;;21.72;61.23;99762.13;411915;24;1161;-81
2022/06/15 00:24:29;;;;;;;367.95;240.80;;;;;;;21.71;61.14;99771.09;409936;24;1286;-81
2022/06/15 00:24:40;;;;;;;368.98;241.30;;;;;;;21.72;61.28;99771.94;411652;24;1321;-81
2022/06/15 00:24:50;;;;;;;371.17;243.60;;;;;;;21.70;61.40;99768.56;409775;24;849;-81
2022/06/15 00:25:01;;;;;;;369.17;241.10;;;;;;;21.69;61.23;99766.88;409857;24;857;-81
2022/06/15 00:25:13;;;;;;;368.30;239.10;;;;;;;21.70;61.34;99766.75;409714;24;1195;-81
2022/06/15 00:25:23;;;;;;;365.05;236.02;;;;;;;21.73;61.18;99769.16;411902;24;860;-81
2022/06/15 00:25:33;;;;;;;368.60;241.10;;;;;;;21.72;61.19;99766.59;413777;23;1162;-81
2022/06/15 00:25:49;;;;;;;368.30;240.32;;;;;;;21.75;61.17;99772.53;411835;24;1231;-81
2022/06/15 00:25:59;;;;;;;362.98;236.57;;;;;;;21.74;60.94;99770.00;413813;23;884;-81
2022/06/15 00:26:10;;;;;;;363.27;235.52;;;;;;;21.74;61.27;99772.66;415749;23;1299;-81
2022/06/15 00:26:21;;;;;;;368.17;240.40;;;;;;;21.75;61.43;99766.34;413846;23;1413;-81
2022/06/15 00:26:31;;;;;;;372.88;245.77;;;;;;;21.77;61.30;99772.41;413992;23;1369;-81
2022/06/15 00:26:42;;;;;;;373.17;245.87;;;;;;;21.73;60.89;99770.97;411780;24;1201;-81
2022/06/15 00:26:52;;;;;;;373.47;243.87;;;;;;;21.73;60.80;99768.31;415602;23;990;-81
2022/06/15 00:27:03;;;;;;;371.67;237.88;;;;;;;21.72;60.96;99763.94;411619;24;1365;-81
2022/06/15 00:27:13;;;;;;;370.58;240.15;;;;;;;21.69;61.20;99769.53;411687;24;797;-81
2022/06/15 00:27:24;;;;;;;371.47;242.93;;;;;;;21.69;61.28;99766.88;411793;24;750;-81
2022/06/15 00:27:34;;;;;;;371.07;245.60;;;;;;;21.66;61.26;99770.63;411850;24;877;-81
2022/06/15 00:27:45;;;;;;;368.30;241.73;;;;;;;21.65;61.01;99760.13;411593;24;1273;-81
2022/06/15 00:27:55;;;;;;;365.42;238.93;;;;;;;21.65;60.98;99765.47;413555;23;1929;-81
2022/06/15 00:28:05;;;;;;;365.40;240.17;;;;;;;21.68;61.11;99762.50;410662;24;1172;-81
2022/06/15 00:28:16;;;;;;;366.17;240.77;;;;;;;21.69;61.08;99767.72;413291;23;1272;-82
2022/06/15 00:28:27;;;;;;;369.08;240.77;;;;;;;21.70;61.04;99757.91;412087;24;1149;-82
2022/06/15 00:28:37;;;;;;;368.17;240.30;;;;;;;21.70;60.96;99763.22;412105;24;1392;-82
2022/06/15 00:28:47;;;;;;;366.08;236.25;;;;;;;21.67;61.13;99764.34;413502;23;904;-82
2022/06/15 00:28:58;;;;;;;365.07;238.60;;;;;;;21.68;60.79;99765.19;411762;24;1306;-82
2022/06/15 00:29:08;;;;;;;367.38;239.02;;;;;;;21.65;60.91;99766.31;416089;23;876;-82
2022/06/15 00:29:19;;;;;;;368.08;241.93;;;;;;;21.68;61.43;99766.03;413711;23;1319;-82
2022/06/15 00:29:30;;;;;;;366.80;239.13;;;;;;;21.67;61.22;99768.81;415759;23;1321;-82
2022/06/15 00:29:41;;;;;;;367.13;242.07;;;;;;;21.67;61.45;99763.47;413931;23;901;-82
2022/06/15 00:29:51;;;;;;;367.65;243.18;;;;;;;21.66;61.07;99767.97;413735;23;1248;-82
2022/06/15 00:30:03;;;;;;;368.17;245.83;;;;;;;21.67;60.84;99758.16;411600;24;1299;-82
2022/06/15 00:30:14;;;;;;;369.13;242.48;;;;;;;21.66;60.80;99767.16;415502;23;951;-82
2022/06/15 00:30:25;;;;;;;369.87;237.73;;;;;;;21.67;60.96;99767.00;413696;23;1165;-81
2022/06/15 00:30:35;;;;;;;372.17;236.80;;;;;;;21.67;61.03;99758.16;411980;24;813;-81
2022/06/15 00:30:46;;;;;;;370.30;234.30;;;;;;;21.72;60.97;99758.63;411747;24;1019;-81
2022/06/15 00:30:57;;;;;;;372.15;238.32;;;;;;;21.75;61.06;99763.69;411732;24;1295;-81
2022/06/15 00:31:07;;;;;;;368.70;238.07;;;;;;;21.71;61.22;99764.91;413488;23;1343;-81
2022/06/15 00:31:18;;;;;;;368.15;239.20;;;;;;;21.70;61.02;99763.22;414172;23;904;-81
2022/06/15 00:31:29;;;;;;;363.95;237.07;;;;;;;21.69;61.29;99766.88;413780;23;1463;-81
2022/06/15 00:31:39;;;;;;;365.37;241.80;;;;;;;21.66;61.20;99769.81;410022;24;1283;-81
2022/06/15 00:31:49;;;;;;;365.55;242.90;;;;;;;21.67;60.91;99763.47;412143;24;1305;-81
2022/06/15 00:32:00;;;;;;;366.27;245.13;;;;;;;21.68;60.80;99768.69;413732;23;794;-81
2022/06/15 00:32:11;;;;;;;365.77;243.27;;;;;;;21.70;60.54;99768.56;413866;23;1347;-81
2022/06/15 00:32:22;;;;;;;367.35;240.77;;;;;;;21.68;60.69;99757.19;411951;24;1289;-81
2022/06/15 00:32:32;;;;;;;367.93;240.23;;;;;;;21.68;60.84;99755.38;411897;24;1417;-81
2022/06/15 00:32:43;;;;;;;368.48;239.38;;;;;;;21.73;60.77;99762.97;413856;23;1189;-81
2022/06/15 00:32:53;;;;;;;366.97;240.13;;;;;;;21.70;60.21;99755.22;411739;24;1447;-81
2022/06/15 00:33:03;;;;;;;364.95;235.70;;;;;;;21.74;60.63;99764.66;411616;23;1209;-81
2022/06/15 00:33:14;;;;;;;365.23;234.57;;;;;;;21.72;60.50;99756.78;413628;23;1222;-81
2022/06/15 00:33:25;;;;;;;369.70;236.07;;;;;;;21.74;60.60;99770.00;411644;24;1323;-81
2022/06/15 00:33:36;;;;;;;369.88;239.13;;;;;;;21.73;60.40;99757.63;413705;23;1397;-81
2022/06/15 00:33:46;;;;;;;369.20;240.47;;;;;;;21.69;60.63;99758.88;417694;23;1501;-81
2022/06/15 00:33:57;;;;;;;367.35;243.15;;;;;;;21.68;60.80;99763.34;414248;23;1219;-81
2022/06/15 00:34:07;;;;;;;366.47;242.90;;;;;;;21.68;60.58;99765.19;409740;24;1194;-81
2022/06/15 00:34:17;;;;;;;366.27;240.35;;;;;;;21.66;60.63;99767.97;412037;24;830;-81
2022/06/15 00:34:28;;;;;;;367.63;238.17;;;;;;;21.64;61.09;99761.97;413939;23;1234;-81
2022/06/15 00:34:38;;;;;;;367.27;236.93;;;;;;;21.64;61.12;99763.78;410081;24;794;-81
2022/06/15 00:34:49;;;;;;;368.23;239.53;;;;;;;21.64;60.84;99764.63;413733;23;1222;-81
2022/06/15 00:34:59;;;;;;;368.67;242.88;;;;;;;21.65;60.37;99760.13;411940;23;1455;-81
2022/06/15 00:35:10;;;;;;;371.20;246.90;;;;;;;21.66;60.86;99756.50;411736;24;1464;-81
2022/06/15 00:35:20;;;;;;;370.63;243.73;;;;;;;21.61;60.95;99756.03;411719;24;1317;-81
2022/06/15 00:35:31;;;;;;;371.00;240.57;;;;;;;21.63;60.72;99764.75;411976;24;1210;-81
2022/06/15 00:35:41;;;;;;;369.60;237.27;;;;;;;21.62;60.72;99761.25;415786;23;845;-81
2022/06/15 00:36:06;;;;;;;367.90;237.63;;;;;;;21.62;60.58;99750.59;411436;24;1271;-81
2022/06/15 00:36:18;;;;;;;368.02;245.82;;;;;;;21.57;60.58;99756.28;411610;24;1421;-81
2022/06/15 00:36:29;;;;;;;372.70;247.02;;;;;;;21.57;60.98;99753.63;412078;24;836;-81
2022/06/15 00:36:40;;;;;;;371.08;242.68;;;;;;;21.58;60.82;99755.31;410000;24;1260;-81
2022/06/15 00:36:50;;;;;;;368.80;241.80;;;;;;;21.58;60.66;99760.66;413581;23;1262;-81
2022/06/15 00:37:05;;;;;;;366.73;243.10;;;;;;;21.55;60.74;99763.56;413873;23;1196;-81
2022/06/15 00:37:15;;;;;;;362.77;238.73;;;;;;;21.56;60.47;99751.94;416114;23;1357;-80
2022/06/15 00:37:25;;;;;;;363.87;238.80;;;;;;;21.53;60.80;99754.03;415500;23;829;-80
2022/06/15 00:37:36;;;;;;;370.30;237.32;;;;;;;21.50;60.76;99759.59;411973;23;1313;-80
2022/06/15 00:37:47;;;;;;;372.63;239.00;;;;;;;21.51;60.66;99759.47;413567;23;1245;-80
2022/06/15 00:37:57;;;;;;;372.67;240.32;;;;;;;21.49;60.64;99760.56;413580;23;1300;-80
2022/06/15 00:38:08;;;;;;;371.10;243.90;;;;;;;21.47;60.62;99760.69;411844;23;1349;-80
2022/06/15 00:38:18;;;;;;;372.73;245.40;;;;;;;21.50;60.69;99762.25;411550;24;1223;-80
2022/06/15 00:38:31;;;;;;;369.63;241.13;;;;;;;21.49;60.76;99760.56;415481;23;1252;-81
2022/06/15 00:38:43;;;;;;;365.85;235.10;;;;;;;21.50;60.53;99762.25;411830;24;848;-81
2022/06/15 00:38:55;;;;;;;363.92;236.00;;;;;;;21.49;60.62;99761.41;413843;23;1357;-81
2022/06/15 00:39:06;;;;;;;363.48;236.35;;;;;;;21.51;60.95;99758.63;413986;23;850;-81
2022/06/15 00:39:16;;;;;;;365.40;236.27;;;;;;;21.48;60.72;99753.56;414070;23;1229;-81
2022/06/15 00:39:27;;;;;;;368.55;237.15;;;;;;;21.52;60.48;99766.50;413882;23;1181;-81
2022/06/15 00:39:38;;;;;;;370.08;239.02;;;;;;;21.47;60.58;99760.69;413979;23;832;-81
2022/06/15 00:39:49;;;;;;;368.75;241.45;;;;;;;21.53;60.24;99768.19;413584;23;1245;-81
2022/06/15 00:39:59;;;;;;;369.43;243.43;;;;;;;21.52;60.67;99761.16;409962;24;1387;-81
2022/06/15 00:40:10;;;;;;;367.52;239.10;;;;;;;21.48;60.82;99764.22;411704;24;1252;-81
2022/06/15 00:40:20;;;;;;;371.23;240.00;;;;;;;21.49;60.90;99763.22;411886;24;1194;-81
2022/06/15 00:40:31;;;;;;;372.45;239.93;;;;;;;21.51;60.87;99759.47;413811;23;912;-81
2022/06/15 00:40:41;;;;;;;373.23;241.17;;;;;;;21.53;60.58;99770.84;413582;23;1198;-83
2022/06/15 00:40:51;;;;;;;370.67;240.80;;;;;;;21.53;60.82;99762.84;411600;24;1142;-82
2022/06/15 00:41:03;;;;;;;368.83;243.20;;;;;;;21.50;60.68;99756.94;413754;23;825;-82
2022/06/15 00:41:17;;;;;;;372.23;247.88;;;;;;;21.54;60.52;99769.88;415476;23;1253;-82
2022/06/15 00:41:30;;;;;;;372.75;244.60;;;;;;;21.52;60.56;99769.16;411731;23;1359;-82
2022/06/15 00:41:40;;;;;;;372.45;241.40;;;;;;;21.54;60.55;99769.88;413820;23;1389;-82
2022/06/15 00:41:51;;;;;;;371.57;238.20;;;;;;;21.58;60.78;99776.63;414039;23;1158;-82
2022/06/15 00:42:01;;;;;;;368.77;238.75;;;;;;;21.60;60.61;99767.66;411940;23;1281;-82
2022/06/15 00:42:12;;;;;;;369.47;241.20;;;;;;;21.58;60.76;99779.28;412260;24;841;-82
2022/06/15 00:42:27;;;;;;;369.48;243.52;;;;;;;21.62;60.62;99766.56;413886;23;1206;-82
2022/06/15 00:42:38;;;;;;;363.30;243.38;;;;;;;21.64;60.54;99771.78;412064;24;1327;-82
2022/06/15 00:42:48;;;;;;;362.43;243.33;;;;;;;21.63;60.17;99764.75;411826;23;1370;-82
2022/06/15 00:42:59;;;;;;;363.50;244.07;;;;;;;21.64;60.02;99775.28;413712;23;1347;-82
2022/06/15 00:43:09;;;;;;;365.75;242.90;;;;;;;21.64;60.21;99766.44;413631;23;1180;-82
2022/06/15 00:43:41;;;;;;;366.70;243.97;;;;;;;21.66;60.38;99769.81;411665;24;786;-82
2022/06/15 00:44:20;;;;;;;365.08;240.55;;;;;;;21.63;60.67;99772.75;413535;23;1361;-82
2022/06/15 00:44:34;;;;;;;362.42;239.00;;;;;;;21.63;60.36;99770.06;412244;24;916;-82
2022/06/15 00:44:44;;;;;;;362.02;240.57;;;;;;;21.61;60.40;99769.34;409883;24;1368;-81
2022/06/15 00:44:55;;;;;;;363.10;241.73;;;;;;;21.64;59.82;99774.44;407461;24;1002;-81
2022/06/15 00:45:05;;;;;;;362.92;240.18;;;;;;;21.63;60.05;99767.41;415547;23;1295;-81
2022/06/15 00:45:16;;;;;;;362.70;239.50;;;;;;;21.63;59.90;99767.41;413893;23;1323;-81
2022/06/15 00:45:26;;;;;;;362.57;240.47;;;;;;;21.63;60.08;99772.75;409853;24;1172;-81
2022/06/15 00:45:37;;;;;;;364.10;243.18;;;;;;;21.55;59.87;99762.72;413751;23;1379;-81
2022/06/15 00:45:47;;;;;;;367.40;247.07;;;;;;;21.50;59.93;99773.75;415734;23;1054;-81
2022/06/15 00:45:59;;;;;;;369.95;245.38;;;;;;;21.46;60.20;99775.00;409827;24;1191;-82
2022/06/15 00:46:45;;;;;;;371.50;247.95;;;;;;;21.50;60.12;99768.44;413499;23;848;-82
2022/06/15 00:46:58;;;;;;;365.85;238.48;;;;;;;21.50;60.10;99768.44;407892;24;1411;-82
2022/06/15 00:47:16;;;;;;;368.23;242.43;;;;;;;21.50;59.97;99768.44;408304;24;744;-82
2022/06/15 00:47:31;;;;;;;369.70;244.32;;;;;;;21.50;60.25;99779.09;410334;24;1404;-82
2022/06/15 00:47:42;;;;;;;368.48;238.18;;;;;;;21.51;60.24;99771.94;406095;24;873;-82
2022/06/15 00:47:53;;;;;;;364.60;230.25;;;;;;;21.52;59.99;99771.81;410083;24;806;-82
2022/06/15 00:48:03;;;;;;;364.98;230.93;;;;;;;21.50;60.11;99764.94;407626;24;1963;-82
2022/06/15 00:48:14;;;;;;;367.10;235.13;;;;;;;21.53;60.08;99778.84;412771;23;1214;-82
2022/06/15 00:48:24;;;;;;;368.83;240.73;;;;;;;21.55;60.00;99774.22;411556;23;1320;-82
2022/06/15 00:48:34;;;;;;;369.88;245.00;;;;;;;21.54;60.11;99769.88;413959;23;841;-82
2022/06/15 00:48:46;;;;;;;369.07;241.17;;;;;;;21.54;59.79;99766.38;411669;24;1215;-82
2022/06/15 00:49:00;;;;;;;366.80;237.80;;;;;;;21.55;60.22;99776.88;413734;23;936;-82
2022/06/15 00:49:20;;;;;;;365.08;235.70;;;;;;;21.60;59.82;99778.31;413501;23;1290;-82
2022/06/15 00:49:32;;;;;;;362.65;233.35;;;;;;;21.59;59.49;99772.16;413824;23;841;-82
2022/06/15 00:49:55;;;;;;;363.27;237.50;;;;;;;21.49;59.66;99772.06;414119;23;1436;-82
2022/06/15 00:50:12;;;;;;;363.70;234.80;;;;;;;21.46;59.68;99777.66;414066;23;1079;-82
2022/06/15 00:50:24;;;;;;;365.00;235.48;;;;;;;21.47;59.83;99768.69;413692;23;1358;-82
2022/06/15 00:50:34;;;;;;;364.90;240.07;;;;;;;21.50;59.97;99773.75;415628;23;1324;-82
2022/06/15 00:50:45;;;;;;;365.60;239.23;;;;;;;21.48;59.74;99770.38;413541;23;817;-82
2022/06/15 00:50:55;;;;;;;369.07;242.37;;;;;;;21.51;59.72;99777.28;411598;24;1307;-82
2022/06/15 00:51:06;;;;;;;370.35;242.10;;;;;;;21.49;59.15;99773.88;415737;23;1316;-82
2022/06/15 00:51:16;;;;;;;372.33;242.83;;;;;;;21.51;59.67;99777.28;413860;23;1323;-82
2022/06/15 00:51:27;;;;;;;369.58;235.07;;;;;;;21.53;59.71;99776.16;413640;23;1303;-82
2022/06/15 00:51:37;;;;;;;371.10;235.00;;;;;;;21.53;59.69;99773.50;411933;24;740;-82
2022/06/15 00:51:49;;;;;;;370.33;234.68;;;;;;;21.54;59.57;99775.19;413722;23;1610;-82
2022/06/15 00:52:05;;;;;;;371.40;239.13;;;;;;;21.54;59.17;99769.03;411818;24;1526;-82
2022/06/15 00:52:45;;;;;;;365.83;235.68;;;;;;;21.58;59.25;99776.63;414022;23;896;-82
2022/06/15 00:53:00;;;;;;;360.98;235.25;;;;;;;21.54;59.62;99769.88;407767;24;997;-82
2022/06/15 00:53:10;;;;;;;362.92;238.55;;;;;;;21.55;59.53;99776.88;415735;23;1427;-82
2022/06/15 00:53:20;;;;;;;362.88;236.70;;;;;;;21.55;59.29;99776.88;411771;24;1132;-82
2022/06/15 00:53:31;;;;;;;363.97;238.30;;;;;;;21.56;59.60;99773.25;409759;24;1355;-82